Time;durP1;ratioP1;P1;durP2;ratioP2;P2;SDS_P1;SDS_P2;PMS_P1;PMS_P2;Temp;Humidity;BMP_temperature;BMP_pressure;BME280_temperature;BME280_humidity;BME280_pressure;Samples;Min_cycle;Max_cycle;Signal;HPM_P1;HPM_P2
2022/10/10 00:00:25;;;;;;;9.35;6.55;;;;;;;6.65;100.00;101203.03;1971595;28;20109;-75
2022/10/10 00:01:26;;;;;;;12.85;7.55;;;;;;;6.63;100.00;101207.38;1970651;28;20119;-73
2022/10/10 00:02:23;;;;;;;11.73;6.57;;;;;;;6.61;100.00;101205.69;1967779;28;20041;-73
2022/10/10 00:03:21;;;;;;;8.32;6.88;;;;;;;6.59;100.00;101204.84;1966439;28;20114;-64
2022/10/10 00:04:18;;;;;;;8.55;6.57;;;;;;;6.60;100.00;101206.59;1964066;28;20121;-65
2022/10/10 00:05:16;;;;;;;9.57;6.82;;;;;;;6.58;100.00;101209.22;1962974;28;20097;-65
2022/10/10 00:06:14;;;;;;;9.52;7.35;;;;;;;6.55;100.00;101204.94;1962733;28;20065;-65
2022/10/10 00:07:12;;;;;;;12.73;6.43;;;;;;;6.53;100.00;101205.84;1964706;28;20055;-65
2022/10/10 00:08:09;;;;;;;12.48;7.03;;;;;;;6.52;100.00;101193.75;1970162;28;20071;-66
2022/10/10 00:09:07;;;;;;;11.80;7.20;;;;;;;6.50;100.00;101196.38;1970275;28;20030;-64
2022/10/10 00:10:06;;;;;;;13.05;7.35;;;;;;;6.50;100.00;101198.13;1970338;28;20489;-64
2022/10/10 00:11:05;;;;;;;9.93;6.75;;;;;;;6.50;100.00;101198.13;1970309;28;20037;-66
2022/10/10 00:12:03;;;;;;;10.65;7.20;;;;;;;6.48;100.00;101200.75;1970104;28;20092;-66
2022/10/10 00:13:00;;;;;;;8.82;6.85;;;;;;;6.47;100.00;101199.06;1965635;28;20034;-66
2022/10/10 00:13:58;;;;;;;9.70;7.03;;;;;;;6.46;100.00;101193.91;1968688;28;20419;-64
2022/10/10 00:14:55;;;;;;;11.50;7.05;;;;;;;6.51;100.00;101195.53;1969663;28;20135;-65
2022/10/10 00:15:52;;;;;;;8.48;6.47;;;;;;;6.46;100.00;101193.91;1961761;28;20031;-64
2022/10/10 00:16:50;;;;;;;8.85;6.88;;;;;;;6.44;100.00;101191.34;1968841;28;20033;-65
2022/10/10 00:17:48;;;;;;;9.85;7.35;;;;;;;6.41;100.00;101191.38;1966890;28;20474;-65
2022/10/10 00:18:45;;;;;;;10.65;6.93;;;;;;;6.41;100.00;101197.44;1970799;28;20117;-65
2022/10/10 00:19:43;;;;;;;9.68;6.85;;;;;;;6.40;100.00;101197.47;1971843;28;20041;-64
2022/10/10 00:20:40;;;;;;;11.02;6.45;;;;;;;6.37;100.00;101189.75;1970064;28;20425;-64
2022/10/10 00:21:37;;;;;;;9.90;6.95;;;;;;;6.38;100.00;101192.31;1970434;28;20095;-65
2022/10/10 00:22:35;;;;;;;9.45;7.05;;;;;;;6.36;100.00;101199.25;1970423;28;20083;-74
2022/10/10 00:23:32;;;;;;;10.38;6.93;;;;;;;6.34;100.00;101189.78;1970389;28;20076;-72
2022/10/10 00:24:30;;;;;;;10.02;7.20;;;;;;;6.31;100.00;101188.13;1970192;28;20093;-73
2022/10/10 00:25:27;;;;;;;10.77;7.60;;;;;;;6.30;100.00;101182.06;1970229;28;20511;-74
2022/10/10 00:26:25;;;;;;;10.18;8.02;;;;;;;6.27;100.00;101194.25;1970184;28;20084;-73
2022/10/10 00:27:23;;;;;;;10.55;7.57;;;;;;;6.28;100.00;101195.94;1970410;28;20040;-73
2022/10/10 00:28:20;;;;;;;9.88;7.80;;;;;;;6.27;100.00;101194.25;1970628;28;20083;-73
2022/10/10 00:29:17;;;;;;;10.35;7.65;;;;;;;6.25;100.00;101196.84;1969567;28;20084;-73
2022/10/10 00:30:15;;;;;;;10.43;7.53;;;;;;;6.25;100.00;101185.63;1969631;28;20092;-73
2022/10/10 00:31:13;;;;;;;13.07;7.85;;;;;;;6.24;100.00;101189.13;1970120;28;20090;-73
2022/10/10 00:32:10;;;;;;;13.27;7.53;;;;;;;6.22;100.00;101190.91;1970102;28;20504;-73
2022/10/10 00:33:08;;;;;;;10.82;7.90;;;;;;;6.19;100.00;101189.19;1970183;28;20489;-72
2022/10/10 00:34:05;;;;;;;10.45;7.13;;;;;;;6.20;100.00;101190.91;1970192;28;20030;-72
2022/10/10 00:35:04;;;;;;;13.27;7.72;;;;;;;6.20;100.00;101190.06;1970504;28;20463;-73
2022/10/10 00:36:03;;;;;;;14.15;7.28;;;;;;;6.17;100.00;101181.44;1970534;28;20040;-73
2022/10/10 00:37:01;;;;;;;13.23;6.90;;;;;;;6.15;100.00;101196.19;1970441;28;20030;-72
2022/10/10 00:37:58;;;;;;;11.75;7.45;;;;;;;6.17;100.00;101186.63;1970584;28;20374;-73
2022/10/10 00:38:56;;;;;;;12.18;8.10;;;;;;;6.15;100.00;101185.81;1970456;28;20177;-71
2022/10/10 00:39:53;;;;;;;10.45;7.47;;;;;;;6.13;100.00;101182.38;1970520;28;20029;-73
2022/10/10 00:40:54;;;;;;;12.57;7.95;;;;;;;6.12;100.00;101180.69;1969770;28;20516;-73
2022/10/10 00:41:52;;;;;;;14.93;7.40;;;;;;;6.13;100.00;101179.78;1969999;28;20034;-74
2022/10/10 00:42:49;;;;;;;12.38;7.57;;;;;;;6.15;100.00;101188.41;1970463;28;20034;-71
2022/10/10 00:44:12;;;;;;;9.70;7.57;;;;;;;6.16;100.00;101177.16;1970145;28;20285;-72
2022/10/10 00:45:41;;;;;;;11.32;7.63;;;;;;;6.09;100.00;101180.72;1970285;28;20117;-72
2022/10/10 00:46:39;;;;;;;13.68;7.28;;;;;;;6.04;100.00;101177.38;1970674;28;20038;-73
2022/10/10 00:47:36;;;;;;;13.73;7.70;;;;;;;6.04;100.00;101177.38;1970382;28;20034;-72
2022/10/10 00:48:39;;;;;;;14.35;7.90;;;;;;;6.03;100.00;101173.91;1970428;28;20038;-76
2022/10/10 00:49:42;;;;;;;12.75;7.88;;;;;;;6.10;100.00;101185.06;1968634;28;20085;-74
2022/10/10 00:50:56;;;;;;;11.65;7.75;;;;;;;6.08;100.00;101173.84;1970430;28;20040;-73
2022/10/10 00:51:58;;;;;;;9.75;8.10;;;;;;;6.04;100.00;101174.78;1970276;28;20171;-73
2022/10/10 00:52:57;;;;;;;14.65;7.63;;;;;;;6.05;100.00;101173.91;1970604;28;20120;-73
2022/10/10 00:54:04;;;;;;;14.02;7.75;;;;;;;6.04;100.00;101172.19;1970451;28;20059;-72
2022/10/10 00:55:02;;;;;;;9.82;7.75;;;;;;;6.01;100.00;101170.47;1970305;28;20109;-73
2022/10/10 00:56:02;;;;;;;11.88;7.65;;;;;;;5.99;100.00;101168.81;1970346;28;20038;-73
2022/10/10 00:57:13;;;;;;;11.60;8.10;;;;;;;6.02;100.00;101164.41;1970430;28;20041;-73
2022/10/10 00:58:13;;;;;;;13.30;7.95;;;;;;;6.01;100.00;101174.81;1970246;28;20378;-72
2022/10/10 00:59:11;;;;;;;15.48;8.95;;;;;;;5.95;100.00;101173.16;1970414;28;20563;-72
2022/10/10 01:00:09;;;;;;;10.95;8.27;;;;;;;5.93;100.00;101170.59;1969539;28;20045;-74
2022/10/10 01:01:07;;;;;;;11.43;8.07;;;;;;;5.95;100.00;101167.16;1969803;28;20398;-74
2022/10/10 01:02:06;;;;;;;9.40;7.70;;;;;;;5.96;100.00;101169.72;1970168;28;20045;-73
2022/10/10 01:03:03;;;;;;;12.57;8.00;;;;;;;5.95;100.00;101172.34;1970404;28;20037;-72
2022/10/10 01:04:02;;;;;;;14.93;8.40;;;;;;;5.97;100.00;101173.16;1970303;28;20045;-74
2022/10/10 01:04:59;;;;;;;11.65;7.78;;;;;;;5.90;100.00;101162.91;1970312;28;20037;-73
2022/10/10 01:05:57;;;;;;;10.13;7.95;;;;;;;5.93;100.00;101169.78;1970231;28;20396;-74
2022/10/10 01:06:55;;;;;;;16.23;8.45;;;;;;;5.93;100.00;101165.41;1970310;28;20057;-64
2022/10/10 01:07:53;;;;;;;13.73;8.32;;;;;;;5.93;100.00;101160.25;1970192;28;20048;-66
2022/10/10 01:08:53;;;;;;;14.88;8.40;;;;;;;5.94;100.00;101158.50;1970059;28;20040;-65
2022/10/10 01:09:55;;;;;;;11.40;8.40;;;;;;;5.93;100.00;101162.84;1969641;28;20460;-65
2022/10/10 01:11:16;;;;;;;12.23;8.75;;;;;;;5.90;100.00;101156.88;1969524;28;20505;-64
2022/10/10 01:12:53;;;;;;;12.77;7.70;;;;;;;5.87;100.00;101155.19;1970057;28;20064;-65
2022/10/10 01:14:22;;;;;;;14.93;8.00;;;;;;;5.86;100.00;101153.50;1969332;28;20033;-65
2022/10/10 01:15:47;;;;;;;12.50;7.78;;;;;;;5.80;100.00;101158.75;1969642;28;20068;-65
2022/10/10 01:17:04;;;;;;;11.73;8.13;;;;;;;5.78;100.00;101155.31;1970243;28;20049;-65
2022/10/10 01:18:40;;;;;;;12.40;7.78;;;;;;;5.80;100.00;101153.59;1970237;28;20034;-65
2022/10/10 01:20:27;;;;;;;11.15;7.60;;;;;;;5.73;100.00;101152.84;1975037;28;20041;-64
2022/10/10 01:22:11;;;;;;;12.27;8.00;;;;;;;5.74;100.00;101153.69;1971801;28;20116;-64
2022/10/10 01:23:27;;;;;;;16.98;7.57;;;;;;;5.75;100.00;101164.00;1970159;28;20049;-65
2022/10/10 01:24:52;;;;;;;13.57;8.30;;;;;;;5.78;100.00;101155.31;1970045;28;20084;-65
2022/10/10 01:26:00;;;;;;;11.48;8.00;;;;;;;5.75;100.00;101150.22;1970115;28;20046;-65
2022/10/10 01:27:20;;;;;;;13.07;8.32;;;;;;;5.81;100.00;101165.66;1970004;28;20032;-64
2022/10/10 01:28:54;;;;;;;14.00;8.23;;;;;;;5.92;100.00;101153.34;1977240;28;20508;-65
2022/10/10 01:30:19;;;;;;;17.17;8.60;;;;;;;5.80;100.00;101153.59;1973416;28;20033;-64
2022/10/10 01:31:23;;;;;;;9.75;8.00;;;;;;;5.82;100.00;101154.44;1969910;28;20100;-65
2022/10/10 01:32:43;;;;;;;12.85;8.27;;;;;;;5.84;100.00;101154.38;1969994;28;20060;-65
2022/10/10 01:34:10;;;;;;;12.18;8.65;;;;;;;5.82;100.00;101150.97;1969967;28;20162;-65
2022/10/10 01:35:28;;;;;;;13.38;8.70;;;;;;;5.86;100.00;101153.50;1969962;28;20047;-65
2022/10/10 01:36:41;;;;;;;10.55;7.53;;;;;;;6.16;100.00;101150.41;1970023;28;20092;-63
2022/10/10 01:38:13;;;;;;;11.80;7.93;;;;;;;6.01;100.00;101146.28;1969953;28;20540;-65
2022/10/10 01:39:22;;;;;;;13.43;7.88;;;;;;;5.99;100.00;101142.91;1972058;28;20132;-66
2022/10/10 01:40:40;;;;;;;11.77;7.80;;;;;;;5.97;100.00;101147.25;1969311;28;20040;-66
2022/10/10 01:42:05;;;;;;;13.13;8.30;;;;;;;5.96;100.00;101135.19;1969354;28;20068;-64
2022/10/10 01:43:07;;;;;;;12.25;7.53;;;;;;;5.92;100.00;101142.16;1969870;28;20076;-65
2022/10/10 01:44:05;;;;;;;14.65;8.48;;;;;;;6.04;100.00;101141.97;1969719;28;20049;-63
2022/10/10 01:45:03;;;;;;;11.05;8.23;;;;;;;6.02;100.00;101137.66;1969963;28;20037;-65
2022/10/10 01:46:15;;;;;;;10.48;8.27;;;;;;;6.07;100.00;101140.19;1969791;28;20070;-64
2022/10/10 01:47:14;;;;;;;11.35;7.70;;;;;;;6.11;100.00;101139.25;1969998;28;20125;-65
2022/10/10 01:48:12;;;;;;;14.32;7.97;;;;;;;6.21;100.00;101143.38;1969847;28;20291;-66
2022/10/10 01:49:10;;;;;;;11.32;7.70;;;;;;;6.18;100.00;101146.03;1969973;28;20038;-65
2022/10/10 01:50:15;;;;;;;11.05;7.82;;;;;;;6.22;100.00;101144.25;1967489;28;20055;-64
2022/10/10 01:51:56;;;;;;;9.60;7.78;;;;;;;6.24;100.00;101142.47;1969872;28;20124;-64
2022/10/10 01:53:05;;;;;;;10.02;7.50;;;;;;;6.30;100.00;101137.16;1969855;28;20049;-65
2022/10/10 01:55:07;;;;;;;10.93;7.47;;;;;;;6.36;100.00;101141.38;1969809;28;20034;-67
2022/10/10 01:56:31;;;;;;;9.00;7.18;;;;;;;6.35;100.00;101140.50;1976591;28;20129;-65
2022/10/10 01:57:55;;;;;;;13.13;7.57;;;;;;;6.37;100.00;101138.72;1976587;28;20131;-66
2022/10/10 01:59:11;;;;;;;8.43;6.55;;;;;;;6.36;100.00;101137.03;1969775;28;20147;-64
2022/10/10 02:00:14;;;;;;;8.95;6.95;;;;;;;6.37;100.00;101133.53;1969744;28;20053;-66
2022/10/10 02:01:43;;;;;;;13.73;7.40;;;;;;;6.35;100.00;101137.06;1969941;28;20082;-65
2022/10/10 02:03:04;;;;;;;9.55;6.90;;;;;;;6.31;100.00;101136.28;1969863;28;20492;-66
2022/10/10 02:04:13;;;;;;;8.45;6.85;;;;;;;6.27;100.00;101130.28;1969872;28;20045;-64
2022/10/10 02:05:52;;;;;;;10.43;7.00;;;;;;;6.23;100.00;101127.78;1969797;28;20029;-65
2022/10/10 02:07:40;;;;;;;13.38;7.53;;;;;;;6.23;100.00;101128.63;1969070;28;20132;-64
2022/10/10 02:08:49;;;;;;;10.35;6.80;;;;;;;6.32;100.00;101132.78;1953529;28;20039;-65
2022/10/10 02:09:51;;;;;;;11.75;7.05;;;;;;;6.39;100.00;101128.31;1953464;28;20062;-64
2022/10/10 02:11:00;;;;;;;12.07;6.60;;;;;;;6.43;100.00;101122.19;1961330;28;20038;-64
2022/10/10 02:11:59;;;;;;;10.82;7.40;;;;;;;6.46;100.00;101132.50;1969741;28;20120;-64
2022/10/10 02:13:01;;;;;;;9.18;7.25;;;;;;;6.62;100.00;101120.09;1969694;28;20030;-64
2022/10/10 02:14:14;;;;;;;9.00;6.95;;;;;;;6.73;100.00;101124.16;1969798;28;20030;-67
2022/10/10 02:15:19;;;;;;;10.70;6.50;;;;;;;6.70;100.00;101125.97;1969764;28;20130;-64
2022/10/10 02:16:40;;;;;;;11.38;6.72;;;;;;;6.80;100.00;101125.75;1969839;28;20396;-65
2022/10/10 02:17:40;;;;;;;13.43;6.72;;;;;;;6.84;100.00;101122.19;1969728;28;20034;-64
2022/10/10 02:18:39;;;;;;;10.85;6.90;;;;;;;6.86;100.00;101125.63;1969755;28;20284;-64
2022/10/10 02:19:45;;;;;;;9.15;7.18;;;;;;;6.87;100.00;101127.31;1968262;28;20056;-66
2022/10/10 02:20:44;;;;;;;9.63;6.85;;;;;;;6.87;100.00;101122.13;1969726;28;20096;-65
2022/10/10 02:21:45;;;;;;;10.27;7.00;;;;;;;6.98;100.00;101116.69;1969579;28;20088;-65
2022/10/10 02:22:45;;;;;;;14.63;6.90;;;;;;;7.03;100.00;101111.41;1969557;28;20034;-64
2022/10/10 02:23:49;;;;;;;11.07;7.13;;;;;;;7.02;100.00;101114.91;1969643;28;20038;-65
2022/10/10 02:24:47;;;;;;;10.23;7.15;;;;;;;7.04;100.00;101115.69;1969707;28;20030;-65
2022/10/10 02:25:53;;;;;;;11.45;7.60;;;;;;;7.01;100.00;101113.19;1968698;28;20046;-65
2022/10/10 02:27:15;;;;;;;8.90;7.80;;;;;;;7.01;100.00;101108.00;1969214;28;20026;-66
2022/10/10 02:28:38;;;;;;;11.38;7.32;;;;;;;7.02;100.00;101115.72;1969573;28;20135;-66
2022/10/10 02:29:41;;;;;;;10.05;6.90;;;;;;;7.01;100.00;101105.41;1969599;28;20040;-64
2022/10/10 02:30:45;;;;;;;11.20;7.22;;;;;;;7.09;100.00;101100.91;1969728;28;20033;-66
2022/10/10 02:32:02;;;;;;;10.80;7.30;;;;;;;7.06;100.00;101108.75;1969679;28;20111;-64
2022/10/10 02:33:04;;;;;;;10.30;7.32;;;;;;;7.03;100.00;101114.00;1969692;28;20032;-66
2022/10/10 02:34:17;;;;;;;9.15;6.78;;;;;;;7.02;100.00;101102.75;1969556;28;20536;-67
2022/10/10 02:35:24;;;;;;;11.50;6.93;;;;;;;7.06;100.00;101101.81;1969637;28;20049;-65
2022/10/10 02:36:25;;;;;;;9.23;7.35;;;;;;;7.06;100.00;101103.56;1969548;28;20040;-66
2022/10/10 02:37:26;;;;;;;8.35;6.88;;;;;;;7.03;100.00;101111.41;1969609;28;20183;-64
2022/10/10 02:38:26;;;;;;;11.57;7.22;;;;;;;7.03;100.00;101095.84;1969609;28;20051;-65
2022/10/10 02:39:31;;;;;;;9.30;6.78;;;;;;;7.04;100.00;101092.34;1969648;28;20129;-64
2022/10/10 02:40:33;;;;;;;9.75;6.70;;;;;;;7.09;100.00;101100.91;1969520;28;20556;-68
2022/10/10 02:41:33;;;;;;;14.55;6.80;;;;;;;7.19;100.00;101099.75;1969695;28;20041;-63
2022/10/10 02:42:33;;;;;;;10.68;7.07;;;;;;;7.08;100.00;101096.56;1968833;28;20139;-65
2022/10/10 02:43:34;;;;;;;11.57;7.00;;;;;;;7.07;100.00;101092.28;1968957;28;20061;-66
2022/10/10 02:44:32;;;;;;;12.75;7.13;;;;;;;7.02;100.00;101088.94;1969408;28;20085;-66
2022/10/10 02:45:32;;;;;;;10.50;7.43;;;;;;;7.09;100.00;101093.09;1969650;28;20184;-66
2022/10/10 02:46:29;;;;;;;9.90;6.72;;;;;;;7.06;100.00;101085.38;1969374;28;20120;-65
2022/10/10 02:47:27;;;;;;;8.95;6.63;;;;;;;7.07;100.00;101092.28;1969606;28;20373;-64
2022/10/10 02:48:24;;;;;;;9.85;7.30;;;;;;;7.09;100.00;101093.09;1969539;28;20366;-65
2022/10/10 02:49:31;;;;;;;8.13;6.70;;;;;;;7.03;100.00;101096.69;1969623;28;20034;-64
2022/10/10 02:50:30;;;;;;;13.65;6.75;;;;;;;7.14;100.00;101087.78;1967517;28;20042;-67
2022/10/10 02:51:28;;;;;;;11.13;6.93;;;;;;;7.07;100.00;101092.28;1969631;28;20424;-67
2022/10/10 02:52:25;;;;;;;9.13;6.88;;;;;;;7.12;100.00;101092.19;1968623;28;20125;-63
2022/10/10 02:53:23;;;;;;;10.10;7.10;;;;;;;7.07;100.00;101081.91;1970062;28;20034;-66
2022/10/10 02:54:20;;;;;;;11.27;7.30;;;;;;;7.04;100.00;101093.22;1971141;28;20044;-65
2022/10/10 02:55:17;;;;;;;12.25;6.65;;;;;;;7.06;100.00;101090.59;1971147;28;20068;-65
2022/10/10 02:56:15;;;;;;;8.55;6.43;;;;;;;7.19;100.00;101091.16;1971129;28;20120;-66
2022/10/10 02:57:12;;;;;;;11.35;6.97;;;;;;;7.13;100.00;101086.94;1971081;28;20076;-66
2022/10/10 02:58:10;;;;;;;7.40;6.40;;;;;;;7.15;100.00;101089.50;1971148;28;20178;-64
2022/10/10 02:59:07;;;;;;;8.18;6.45;;;;;;;7.14;100.00;101088.66;1971091;28;20076;-65
2022/10/10 03:00:06;;;;;;;12.90;6.68;;;;;;;7.12;100.00;101085.22;1971281;28;20102;-66
2022/10/10 03:01:04;;;;;;;10.05;6.78;;;;;;;7.12;100.00;101079.19;1970223;28;20033;-65
2022/10/10 03:02:01;;;;;;;11.13;6.72;;;;;;;7.11;100.00;101078.34;1970731;28;20107;-74
2022/10/10 03:02:58;;;;;;;10.80;6.88;;;;;;;7.11;100.00;101083.53;1970976;28;20038;-75
2022/10/10 03:03:56;;;;;;;10.15;6.50;;;;;;;7.10;100.00;101074.03;1971163;28;20033;-72
2022/10/10 03:04:53;;;;;;;15.48;6.47;;;;;;;7.12;100.00;101074.00;1971118;28;20065;-73
2022/10/10 03:05:50;;;;;;;8.75;7.00;;;;;;;7.12;100.00;101076.59;1971127;28;20025;-73
2022/10/10 03:06:48;;;;;;;8.13;6.25;;;;;;;7.16;100.00;101075.63;1971155;28;20072;-73
2022/10/10 03:07:45;;;;;;;10.23;6.65;;;;;;;7.23;100.00;101079.78;1970446;28;20139;-74
2022/10/10 03:08:42;;;;;;;9.05;5.80;;;;;;;7.31;100.00;101074.41;1970571;28;20033;-70
2022/10/10 03:09:40;;;;;;;8.48;7.20;;;;;;;7.28;100.00;101074.47;1970982;28;20564;-73
2022/10/10 03:10:37;;;;;;;10.23;6.85;;;;;;;7.25;100.00;101069.38;1970988;28;20390;-74
2022/10/10 03:11:35;;;;;;;12.68;6.88;;;;;;;7.24;100.00;101067.66;1970999;28;20110;-73
2022/10/10 03:12:35;;;;;;;10.65;6.60;;;;;;;7.26;100.00;101071.06;1971044;28;20038;-74
2022/10/10 03:13:33;;;;;;;7.53;6.40;;;;;;;7.25;100.00;101066.78;1971009;28;20037;-73
2022/10/10 03:14:30;;;;;;;9.98;6.50;;;;;;;7.24;100.00;101067.66;1971035;28;20486;-73
2022/10/10 03:15:27;;;;;;;9.98;6.22;;;;;;;7.28;100.00;101072.72;1970924;28;20072;-72
2022/10/10 03:16:25;;;;;;;9.85;6.47;;;;;;;7.31;100.00;101066.59;1971079;28;20397;-73
2022/10/10 03:17:22;;;;;;;10.38;6.57;;;;;;;7.25;100.00;101065.03;1970958;28;20102;-73
2022/10/10 03:18:20;;;;;;;9.95;6.53;;;;;;;7.24;100.00;101063.31;1971014;28;20085;-72
2022/10/10 03:19:18;;;;;;;10.40;6.45;;;;;;;7.21;100.00;101064.25;1970975;28;20070;-76
2022/10/10 03:20:15;;;;;;;10.02;6.85;;;;;;;7.23;100.00;101061.63;1968511;28;20040;-72
2022/10/10 03:21:13;;;;;;;8.75;6.85;;;;;;;7.24;100.00;101057.25;1970954;28;20061;-74
2022/10/10 03:22:10;;;;;;;10.35;6.35;;;;;;;7.25;100.00;101070.22;1970880;28;20049;-73
2022/10/10 03:23:07;;;;;;;8.50;6.40;;;;;;;7.28;100.00;101064.09;1970974;28;20036;-73
2022/10/10 03:24:05;;;;;;;9.18;6.57;;;;;;;7.30;100.00;101059.72;1970858;28;20111;-73
2022/10/10 03:25:03;;;;;;;10.25;6.57;;;;;;;7.33;100.00;101064.84;1970990;28;20034;-71
2022/10/10 03:26:02;;;;;;;7.43;6.35;;;;;;;7.31;100.00;101069.22;1970094;28;20058;-72
2022/10/10 03:26:59;;;;;;;11.30;6.28;;;;;;;7.36;100.00;101066.50;1970462;28;20068;-74
2022/10/10 03:27:57;;;;;;;10.65;6.78;;;;;;;7.31;100.00;101062.28;1970753;28;20547;-73
2022/10/10 03:28:54;;;;;;;11.40;6.20;;;;;;;7.30;100.00;101063.19;1970894;28;20056;-70
2022/10/10 03:29:51;;;;;;;7.25;6.38;;;;;;;7.32;100.00;101068.31;1970834;28;20038;-75
2022/10/10 03:30:49;;;;;;;11.40;6.95;;;;;;;7.42;100.00;101058.53;1970828;28;20033;-72
2022/10/10 03:31:46;;;;;;;9.02;6.25;;;;;;;7.44;100.00;101060.22;1970838;28;20127;-73
2022/10/10 03:32:43;;;;;;;10.07;6.15;;;;;;;7.40;100.00;101065.53;1970850;28;20041;-71
2022/10/10 03:33:41;;;;;;;12.00;6.20;;;;;;;7.40;100.00;101060.34;1970861;28;20099;-73
2022/10/10 03:34:38;;;;;;;8.73;5.70;;;;;;;7.38;100.00;101062.97;1970709;28;20060;-72
2022/10/10 03:35:36;;;;;;;8.93;6.35;;;;;;;7.34;100.00;101064.81;1970839;28;20046;-72
2022/10/10 03:36:34;;;;;;;10.68;6.70;;;;;;;7.33;100.00;101064.84;1970865;28;20069;-74
2022/10/10 03:37:31;;;;;;;7.40;6.03;;;;;;;7.34;100.00;101069.13;1970870;28;20049;-72
2022/10/10 03:38:28;;;;;;;11.88;6.35;;;;;;;7.34;100.00;101061.34;1970818;28;20543;-72
2022/10/10 03:39:26;;;;;;;9.35;6.10;;;;;;;7.30;100.00;101063.19;1970165;28;20067;-73
2022/10/10 03:40:26;;;;;;;8.02;6.25;;;;;;;7.28;100.00;101064.09;1970256;28;20057;-73
2022/10/10 03:41:23;;;;;;;10.73;6.43;;;;;;;7.24;100.00;101075.44;1970983;28;20092;-72
2022/10/10 03:42:20;;;;;;;7.85;6.70;;;;;;;7.21;100.00;101069.44;1970807;28;20120;-72
2022/10/10 03:43:18;;;;;;;10.93;6.70;;;;;;;7.17;100.00;101075.59;1970760;28;20033;-74
2022/10/10 03:44:15;;;;;;;10.40;6.18;;;;;;;7.17;100.00;101067.81;1970691;28;20128;-72
2022/10/10 03:45:13;;;;;;;12.85;6.35;;;;;;;7.21;100.00;101078.97;1970808;28;20034;-77
2022/10/10 03:46:10;;;;;;;12.10;6.40;;;;;;;7.29;100.00;101076.19;1970843;28;20131;-72
2022/10/10 03:47:07;;;;;;;13.48;6.35;;;;;;;7.32;100.00;101071.75;1970655;28;20062;-76
2022/10/10 03:48:05;;;;;;;8.20;6.07;;;;;;;7.26;100.00;101069.34;1970688;28;20544;-73
2022/10/10 03:49:02;;;;;;;12.23;6.55;;;;;;;7.27;100.00;101072.78;1970778;28;20382;-71
2022/10/10 03:50:00;;;;;;;8.75;6.60;;;;;;;7.26;100.00;101071.06;1968351;28;20237;-71
2022/10/10 03:50:57;;;;;;;8.48;6.20;;;;;;;7.23;100.00;101066.81;1970714;28;20508;-72
2022/10/10 03:51:54;;;;;;;9.85;6.55;;;;;;;7.24;100.00;101072.84;1970837;28;20057;-72
2022/10/10 03:52:52;;;;;;;11.30;6.30;;;;;;;7.21;100.00;101064.25;1970704;28;20038;-73
2022/10/10 03:53:49;;;;;;;11.75;6.22;;;;;;;7.18;100.00;101069.50;1970881;28;20038;-73
2022/10/10 03:54:46;;;;;;;7.78;6.70;;;;;;;7.16;100.00;101073.91;1970773;28;20117;-74
2022/10/10 03:55:44;;;;;;;8.88;6.80;;;;;;;7.16;100.00;101068.72;1970093;28;20116;-75
2022/10/10 03:56:41;;;;;;;8.52;6.82;;;;;;;7.17;100.00;101072.16;1970292;28;20053;-73
2022/10/10 03:57:39;;;;;;;9.10;6.63;;;;;;;7.20;100.00;101065.16;1970637;28;20034;-71
2022/10/10 03:58:36;;;;;;;9.68;6.20;;;;;;;7.17;100.00;101075.59;1970678;28;20124;-72
2022/10/10 03:59:33;;;;;;;10.52;6.85;;;;;;;7.17;100.00;101074.75;1970629;28;20105;-71
2022/10/10 04:00:31;;;;;;;11.27;6.65;;;;;;;7.19;100.00;101067.78;1970766;28;20065;-70
2022/10/10 04:01:29;;;;;;;11.52;6.90;;;;;;;7.18;100.00;101069.50;1970760;28;20382;-66
2022/10/10 04:02:27;;;;;;;8.93;6.43;;;;;;;7.21;100.00;101064.25;1970618;28;20580;-66
2022/10/10 04:03:25;;;;;;;13.32;6.93;;;;;;;7.21;100.00;101063.38;1970652;28;20061;-65
2022/10/10 04:04:23;;;;;;;12.43;6.53;;;;;;;7.15;100.00;101069.59;1969610;28;20408;-65
2022/10/10 04:05:20;;;;;;;8.05;6.63;;;;;;;7.14;100.00;101070.47;1970094;28;20030;-64
2022/10/10 04:06:18;;;;;;;10.73;6.45;;;;;;;7.14;100.00;101067.03;1970581;28;20041;-67
2022/10/10 04:07:16;;;;;;;8.73;5.80;;;;;;;7.19;100.00;101071.22;1970663;28;20489;-64
2022/10/10 04:08:13;;;;;;;7.63;6.45;;;;;;;7.19;100.00;101068.63;1970623;28;20047;-65
2022/10/10 04:09:11;;;;;;;10.13;6.25;;;;;;;7.20;100.00;101062.56;1970687;28;20033;-65
2022/10/10 04:10:08;;;;;;;12.05;6.43;;;;;;;7.22;100.00;101065.94;1970621;28;20409;-64
2022/10/10 04:11:06;;;;;;;8.80;6.38;;;;;;;7.20;100.00;101062.56;1970550;28;20091;-64
2022/10/10 04:12:03;;;;;;;8.90;6.70;;;;;;;7.19;100.00;101067.78;1970537;28;20062;-62
2022/10/10 04:13:01;;;;;;;7.20;6.20;;;;;;;7.15;100.00;101067.00;1970652;28;20030;-66
2022/10/10 04:13:58;;;;;;;7.55;6.18;;;;;;;7.15;100.00;101072.19;1970554;28;20456;-66
2022/10/10 04:14:56;;;;;;;10.23;7.13;;;;;;;7.11;100.00;101062.75;1970616;28;20048;-64
2022/10/10 04:15:55;;;;;;;14.43;6.93;;;;;;;7.12;100.00;101061.88;1970595;28;20030;-64
2022/10/10 04:16:53;;;;;;;11.20;6.72;;;;;;;7.09;100.00;101065.41;1970597;28;20045;-66
2022/10/10 04:17:50;;;;;;;12.25;6.45;;;;;;;7.07;100.00;101068.91;1970554;28;20131;-66
2022/10/10 04:18:48;;;;;;;9.75;6.97;;;;;;;7.05;100.00;101066.34;1970586;28;20040;-64
2022/10/10 04:19:45;;;;;;;9.45;6.32;;;;;;;7.02;100.00;101068.19;1968167;28;20044;-65
2022/10/10 04:20:42;;;;;;;8.68;7.10;;;;;;;6.97;100.00;101063.09;1970431;28;20037;-66
2022/10/10 04:21:40;;;;;;;10.77;6.68;;;;;;;6.98;100.00;101056.19;1970627;28;20471;-65
2022/10/10 04:22:38;;;;;;;9.93;7.00;;;;;;;6.98;100.00;101063.97;1969701;28;20056;-66
2022/10/10 04:23:36;;;;;;;11.43;6.65;;;;;;;6.97;100.00;101064.84;1969930;28;20034;-63
2022/10/10 04:24:33;;;;;;;8.70;6.60;;;;;;;6.93;100.00;101064.94;1970376;28;20123;-64
2022/10/10 04:25:31;;;;;;;11.23;7.30;;;;;;;6.91;100.00;101065.84;1970566;28;20068;-63
2022/10/10 04:26:28;;;;;;;10.02;7.10;;;;;;;6.89;100.00;101063.28;1970480;28;20069;-67
2022/10/10 04:27:26;;;;;;;8.40;6.78;;;;;;;6.89;100.00;101068.47;1970559;28;20040;-66
2022/10/10 04:28:23;;;;;;;9.75;7.22;;;;;;;6.88;100.00;101060.72;1970323;28;20076;-65
2022/10/10 04:29:20;;;;;;;11.07;7.05;;;;;;;6.83;100.00;101064.28;1970552;28;20112;-65
2022/10/10 04:30:19;;;;;;;10.07;7.10;;;;;;;6.82;100.00;101069.50;1970431;28;20382;-65
2022/10/10 04:31:16;;;;;;;10.38;6.82;;;;;;;6.81;100.00;101066.06;1970455;28;20038;-68
2022/10/10 04:32:14;;;;;;;10.88;6.68;;;;;;;6.80;100.00;101063.50;1969644;28;20042;-66
2022/10/10 04:33:11;;;;;;;7.15;6.43;;;;;;;6.84;100.00;101059.94;1969857;28;20041;-66
2022/10/10 04:34:08;;;;;;;10.43;7.43;;;;;;;6.80;100.00;101063.50;1970443;28;20041;-64
2022/10/10 04:35:06;;;;;;;10.40;6.85;;;;;;;6.80;100.00;101064.34;1969618;28;20036;-65
2022/10/10 04:36:04;;;;;;;11.23;7.22;;;;;;;6.83;100.00;101058.22;1969815;28;20043;-64
2022/10/10 04:37:02;;;;;;;10.02;6.82;;;;;;;6.85;100.00;101066.84;1970389;28;20030;-65
2022/10/10 04:37:59;;;;;;;8.88;7.05;;;;;;;6.83;100.00;101064.28;1970468;28;20083;-64
2022/10/10 04:38:58;;;;;;;10.73;7.28;;;;;;;6.85;100.00;101066.84;1970376;28;20398;-66
2022/10/10 04:39:55;;;;;;;10.88;6.88;;;;;;;6.83;100.00;101066.03;1970463;28;20038;-66
2022/10/10 04:40:53;;;;;;;11.93;7.93;;;;;;;6.83;100.00;101063.44;1970358;28;20586;-65
2022/10/10 04:41:50;;;;;;;9.40;6.78;;;;;;;6.82;100.00;101067.75;1970455;28;20040;-65
2022/10/10 04:42:47;;;;;;;9.43;6.93;;;;;;;6.79;100.00;101062.66;1970387;28;20038;-65
2022/10/10 04:43:45;;;;;;;11.13;7.28;;;;;;;6.75;100.00;101054.97;1970090;28;20038;-65
2022/10/10 04:44:42;;;;;;;9.38;6.97;;;;;;;6.77;100.00;101063.59;1970371;28;20065;-65
2022/10/10 04:45:40;;;;;;;10.40;7.57;;;;;;;6.72;100.00;101065.41;1970321;28;20118;-64
2022/10/10 04:46:37;;;;;;;10.88;7.60;;;;;;;6.69;100.00;101064.59;1970493;28;20106;-65
2022/10/10 04:47:35;;;;;;;13.02;7.30;;;;;;;6.65;100.00;101060.38;1970180;28;20037;-67
2022/10/10 04:48:32;;;;;;;12.85;7.78;;;;;;;6.63;100.00;101062.13;1970348;28;20094;-64